METAR Data
IDs: Format: Raw Decoded Include TAF

Data at: 1427 UTC 20 Jul 2019

METAR for:KCKP (Cherokee Cnty, IA, US)
Text:KCKP 201415Z AUTO 04005KT 10SM BKN095 BKN120 26/25 A2982 RMK AO2 LTG DSNT N AND NW T02630246
Temperature: 26.3°C ( 79°F)
Dewpoint: 24.6°C ( 76°F) [RH = 90%]
Pressure (altimeter):29.82 inches Hg (1009.9 mb)
Winds:from the NE (40 degrees) at 6 MPH (5 knots; 2.6 m/s)
Visibility:10 or more sm (16+ km)
Ceiling:9500 feet AGL
Clouds: broken clouds at 9500 feet AGL, broken clouds at 12000 feet AGL
QC Flag:automated observation with no human augmentation